createdAt,value
2023-04-20T00:02:21.637Z,17.67
2023-04-20T00:04:53.033Z,19.19
2023-04-20T00:07:24.897Z,17.86
2023-04-20T00:09:54.708Z,18.62
2023-04-20T00:12:24.615Z,19.00
2023-04-20T00:14:54.422Z,18.81
2023-04-20T00:17:24.311Z,17.10
2023-04-20T00:19:54.144Z,19.76
2023-04-20T00:22:25.249Z,17.67
2023-04-20T00:24:52.403Z,18.81
2023-04-20T00:27:20.947Z,17.48
2023-04-20T00:29:49.214Z,19.57
2023-04-20T00:32:17.626Z,19.57
2023-04-20T00:34:46.094Z,20.71
2023-04-20T00:37:14.610Z,20.14
2023-04-20T00:39:42.852Z,18.62
2023-04-20T00:42:20.449Z,19.57
2023-04-20T00:44:50.618Z,18.81
2023-04-20T00:47:20.393Z,18.05
2023-04-20T00:49:51.520Z,17.67
2023-04-20T00:52:22.396Z,16.34
2023-04-20T00:54:52.820Z,17.86
2023-04-20T00:57:24.021Z,17.86
2023-04-20T00:59:53.886Z,16.72
2023-04-20T01:02:23.827Z,16.15
2023-04-20T01:04:54.494Z,17.10
2023-04-20T01:07:24.255Z,16.15
2023-04-20T01:09:54.129Z,19.19
2023-04-20T01:12:24.029Z,18.62
2023-04-20T01:14:53.877Z,19.00
2023-04-20T01:17:24.499Z,16.34
2023-04-20T01:19:54.346Z,16.15
2023-04-20T01:22:24.158Z,17.48
2023-04-20T01:24:54.136Z,16.34
2023-04-20T01:27:23.905Z,18.43
2023-04-20T01:29:53.596Z,16.34
2023-04-20T01:32:23.381Z,16.91
2023-04-20T01:34:53.235Z,17.86
2023-04-20T01:37:23.255Z,18.81
2023-04-20T01:39:53.740Z,17.29
2023-04-20T01:42:24.140Z,17.86
2023-04-20T01:44:53.933Z,12.54
2023-04-20T01:47:23.652Z,15.39
2023-04-20T01:49:53.416Z,15.39
2023-04-20T01:52:23.140Z,18.81
2023-04-20T01:54:52.908Z,18.05
2023-04-20T01:57:22.653Z,16.34
2023-04-20T01:59:52.400Z,17.29
2023-04-20T02:02:22.272Z,17.86
2023-04-20T02:04:53.282Z,16.34
2023-04-20T02:07:23.113Z,18.43
2023-04-20T02:09:52.892Z,19.57
2023-04-20T02:12:22.836Z,20.14
2023-04-20T02:14:52.612Z,19.76
2023-04-20T02:17:22.535Z,17.48
2023-04-20T02:19:52.342Z,18.24
2023-04-20T02:22:22.170Z,17.67
2023-04-20T02:24:50.571Z,18.62
2023-04-20T02:27:18.947Z,18.81
2023-04-20T02:29:47.428Z,19.19
2023-04-20T02:32:17.176Z,17.67
2023-04-20T02:34:46.200Z,18.81
2023-04-20T02:37:14.155Z,17.67
2023-04-20T02:39:42.490Z,17.48
2023-04-20T02:42:18.081Z,18.05
2023-04-20T02:44:47.818Z,19.00
2023-04-20T02:47:17.652Z,18.05
2023-04-20T02:49:47.549Z,19.19
2023-04-20T02:52:17.605Z,17.67
2023-04-20T02:54:47.696Z,20.14
2023-04-20T02:57:17.465Z,18.81
2023-04-20T02:59:47.162Z,17.10
2023-04-20T03:02:17.065Z,18.62
2023-04-20T03:04:47.107Z,18.81
2023-04-20T03:07:18.255Z,20.52
2023-04-20T03:09:48.023Z,20.33
2023-04-20T03:12:18.512Z,17.86
2023-04-20T03:14:49.056Z,19.57
2023-04-20T03:17:18.787Z,17.48
2023-04-20T03:19:48.682Z,19.95
2023-04-20T03:22:21.100Z,20.90
2023-04-20T03:24:53.636Z,18.81
2023-04-20T03:33:01.087Z,17.86
2023-04-20T03:35:30.866Z,18.43
2023-04-20T03:38:01.304Z,17.48
2023-04-20T03:40:31.130Z,19.76
2023-04-20T03:43:00.873Z,20.33
2023-04-20T03:45:30.727Z,19.19
2023-04-20T03:48:00.612Z,20.90
2023-04-20T03:50:30.529Z,21.66
2023-04-20T03:53:00.323Z,21.85
2023-04-20T03:55:30.230Z,22.23
2023-04-20T03:57:59.987Z,20.52
2023-04-20T04:00:29.839Z,18.24
2023-04-20T04:02:59.886Z,21.28
2023-04-20T04:05:30.604Z,22.42
2023-04-20T04:08:00.312Z,21.85
2023-04-20T04:10:30.117Z,24.13
2023-04-20T04:12:59.909Z,24.32
2023-04-20T04:15:29.651Z,23.18
2023-04-20T04:17:59.496Z,22.61
2023-04-20T04:20:29.306Z,21.09
2023-04-20T04:22:59.141Z,21.47
2023-04-20T04:25:29.776Z,26.60
2023-04-20T04:27:59.912Z,26.22
2023-04-20T04:30:30.031Z,26.03
2023-04-20T04:32:59.924Z,26.98
2023-04-20T04:35:30.526Z,26.79
2023-04-20T04:38:01.045Z,26.41
2023-04-20T04:40:32.828Z,25.08
2023-04-20T04:43:02.795Z,26.98
2023-04-20T04:45:32.558Z,29.26
2023-04-20T04:48:03.137Z,28.88
2023-04-20T04:50:34.098Z,27.93
2023-04-20T04:53:03.995Z,30.02
2023-04-20T04:55:34.707Z,30.02
2023-04-20T04:58:04.316Z,27.55
2023-04-20T05:00:34.286Z,28.69
2023-04-20T05:03:04.198Z,29.07
2023-04-20T05:05:32.858Z,26.98
2023-04-20T05:08:00.943Z,30.02
2023-04-20T05:10:29.382Z,29.64
2023-04-20T05:12:59.538Z,26.03
2023-04-20T05:15:29.294Z,28.88
2023-04-20T05:17:57.710Z,28.88
2023-04-20T05:20:26.062Z,29.45
2023-04-20T05:22:54.467Z,24.51
2023-04-20T05:25:23.098Z,29.07
2023-04-20T05:27:51.454Z,29.83
2023-04-20T05:30:21.810Z,28.88
2023-04-20T05:32:52.696Z,29.45
2023-04-20T05:35:22.626Z,27.55
2023-04-20T05:37:52.426Z,29.07
2023-04-20T05:40:22.338Z,27.93
2023-04-20T05:42:52.429Z,29.83
2023-04-20T05:45:22.195Z,28.88
2023-04-20T05:47:56.941Z,30.78
2023-04-20T05:50:27.553Z,29.07
2023-04-20T05:52:57.340Z,26.79
2023-04-20T05:55:27.192Z,30.21
2023-04-20T05:57:57.711Z,29.45
2023-04-20T06:00:27.890Z,31.73
2023-04-20T06:02:57.759Z,30.02
2023-04-20T06:05:27.719Z,30.78
2023-04-20T06:07:57.543Z,32.30
2023-04-20T06:10:32.321Z,30.21
2023-04-20T06:13:02.193Z,32.30
2023-04-20T06:15:32.130Z,30.78
2023-04-20T06:18:02.334Z,29.07
2023-04-20T06:20:32.241Z,29.64
2023-04-20T06:23:01.968Z,28.69
2023-04-20T06:25:31.725Z,26.79
2023-04-20T06:28:01.537Z,29.26
2023-04-20T06:30:32.919Z,29.45
2023-04-20T06:33:03.439Z,27.17
2023-04-20T06:35:33.304Z,29.64
2023-04-20T06:38:03.182Z,30.02
2023-04-20T06:40:32.935Z,27.74
2023-04-20T06:43:02.835Z,29.45
2023-04-20T06:45:34.132Z,29.26
2023-04-20T06:48:04.204Z,30.02
2023-04-20T06:50:34.379Z,30.59
2023-04-20T06:53:04.341Z,31.54
2023-04-20T06:55:34.207Z,28.69
2023-04-20T06:58:03.966Z,30.21
2023-04-20T07:00:32.778Z,26.03
2023-04-20T07:03:01.393Z,29.26
2023-04-20T07:05:29.264Z,30.40
2023-04-20T07:07:57.729Z,31.16
2023-04-20T07:10:26.274Z,27.55
2023-04-20T07:12:54.609Z,31.35
2023-04-20T07:15:23.099Z,27.36
2023-04-20T07:17:51.355Z,31.16
2023-04-20T07:20:19.779Z,29.07
2023-04-20T07:22:48.340Z,27.93
2023-04-20T07:25:17.821Z,27.74
2023-04-20T07:27:45.234Z,26.79
2023-04-20T07:30:14.488Z,27.74
2023-04-20T07:32:42.213Z,29.83
2023-04-20T07:35:11.309Z,27.36
2023-04-20T07:37:38.930Z,28.12
2023-04-20T07:40:08.699Z,28.12
2023-04-20T07:42:37.313Z,28.88
2023-04-20T07:45:08.512Z,26.41
2023-04-20T07:47:36.426Z,27.55
2023-04-20T07:50:06.441Z,28.12
2023-04-20T07:52:36.266Z,27.93
2023-04-20T07:55:08.103Z,25.46
2023-04-20T07:57:38.008Z,27.74
2023-04-20T08:00:09.879Z,26.60
2023-04-20T08:02:39.791Z,28.69
2023-04-20T08:05:10.462Z,27.17
2023-04-20T08:07:40.766Z,25.27
2023-04-20T08:10:11.176Z,25.08
2023-04-20T08:12:41.111Z,24.89
2023-04-20T08:15:11.611Z,25.84
2023-04-20T08:17:41.400Z,23.75
2023-04-20T08:20:11.340Z,23.56
2023-04-20T08:22:41.361Z,25.27
2023-04-20T08:25:11.400Z,22.23
2023-04-20T08:27:41.148Z,23.75
2023-04-20T08:30:12.037Z,23.37
2023-04-20T08:32:41.924Z,21.09
2023-04-20T08:35:11.746Z,20.52
2023-04-20T08:37:43.175Z,21.28
2023-04-20T08:40:13.188Z,21.85
2023-04-20T08:42:43.079Z,22.61
2023-04-20T08:45:13.202Z,20.52
2023-04-20T08:47:45.381Z,22.61
2023-04-20T08:50:16.667Z,22.42
2023-04-20T08:52:47.018Z,20.14
2023-04-20T08:55:19.126Z,23.75
2023-04-20T08:57:52.055Z,22.42
2023-04-20T09:00:22.352Z,19.00
2023-04-20T09:02:56.104Z,21.09
2023-04-20T09:05:32.053Z,21.09
2023-04-20T09:08:02.282Z,19.38
2023-04-20T09:10:44.346Z,18.05
2023-04-20T09:13:23.810Z,18.62
2023-04-20T09:15:53.789Z,19.38
2023-04-20T09:18:24.727Z,17.48
2023-04-20T09:20:54.564Z,19.00
2023-04-20T09:23:24.298Z,20.71
2023-04-20T09:25:54.089Z,19.95
2023-04-20T09:28:23.942Z,18.24
2023-04-20T09:30:53.669Z,17.86
2023-04-20T09:33:29.578Z,19.57
2023-04-20T09:36:06.995Z,21.47
2023-04-20T09:38:36.326Z,19.76
2023-04-20T09:41:07.464Z,16.53
2023-04-20T09:43:37.235Z,20.71
2023-04-20T09:46:08.110Z,20.14
2023-04-20T09:48:38.237Z,20.52
2023-04-20T09:51:08.249Z,19.76
2023-04-20T09:53:39.403Z,20.14
2023-04-20T09:56:10.429Z,17.86
2023-04-20T09:58:38.669Z,21.09
2023-04-20T10:01:11.248Z,19.38
2023-04-20T10:03:43.011Z,20.52
2023-04-20T10:06:24.672Z,24.13
2023-04-20T10:08:55.601Z,24.70
2023-04-20T10:11:45.090Z,21.66
2023-04-20T10:14:26.152Z,20.71
2023-04-20T10:17:09.321Z,22.99
2023-04-20T10:19:44.910Z,20.14
2023-04-20T10:22:32.727Z,20.52
2023-04-20T10:25:17.439Z,19.00
2023-04-20T10:28:09.754Z,20.52
2023-04-20T10:30:50.374Z,18.43
2023-04-20T10:33:19.705Z,19.95
2023-04-20T10:35:57.745Z,19.38
2023-04-20T10:38:36.732Z,18.24
2023-04-20T10:41:11.717Z,19.38
2023-04-20T10:43:43.300Z,19.00
2023-04-20T10:46:17.916Z,18.24
2023-04-20T10:48:57.554Z,19.00
2023-04-20T10:51:26.097Z,18.43
2023-04-20T10:54:07.944Z,19.19
2023-04-20T10:56:45.716Z,18.43
2023-04-20T10:59:19.926Z,18.81
2023-04-20T11:01:52.019Z,20.14
2023-04-20T11:04:32.560Z,17.86
2023-04-20T11:07:13.376Z,17.86
2023-04-20T11:09:43.201Z,16.91
2023-04-20T11:12:17.923Z,17.86
2023-04-20T11:15:02.747Z,16.72
2023-04-20T11:17:34.684Z,17.10
2023-04-20T11:20:14.373Z,17.29
2023-04-20T11:22:58.590Z,15.96
2023-04-20T11:25:28.397Z,16.91
2023-04-20T11:28:08.970Z,16.91
2023-04-20T11:30:43.570Z,19.57
2023-04-20T11:33:14.390Z,18.24
2023-04-20T11:35:44.475Z,18.05
2023-04-20T11:38:14.194Z,18.62
2023-04-20T11:40:43.907Z,18.62
2023-04-20T11:43:13.707Z,18.05
2023-04-20T11:45:43.549Z,16.91
2023-04-20T11:48:13.477Z,19.19
2023-04-20T11:50:43.904Z,17.10
2023-04-20T11:53:14.886Z,18.05
2023-04-20T11:55:44.635Z,19.19
2023-04-20T11:58:14.488Z,18.43
2023-04-20T12:00:44.253Z,18.43
2023-04-20T12:03:14.165Z,19.00
2023-04-20T12:05:44.180Z,20.52
2023-04-20T12:08:14.144Z,20.33
2023-04-20T12:10:44.061Z,20.90
2023-04-20T12:13:15.004Z,20.52
2023-04-20T12:15:45.107Z,20.33
2023-04-20T12:18:15.181Z,20.90
2023-04-20T12:20:46.971Z,20.33
2023-04-20T12:23:16.340Z,20.90
2023-04-20T12:25:44.827Z,21.85
2023-04-20T12:28:13.844Z,18.81
2023-04-20T12:30:41.808Z,21.09
2023-04-20T12:33:11.677Z,19.95
2023-04-20T12:35:41.428Z,20.71
2023-04-20T12:38:10.296Z,21.66
2023-04-20T12:40:38.388Z,21.66
2023-04-20T12:43:05.768Z,23.56
2023-04-20T12:45:35.685Z,22.61
2023-04-20T12:48:05.867Z,22.04
2023-04-20T12:50:36.503Z,21.85
2023-04-20T12:53:06.567Z,20.71
2023-04-20T12:55:36.471Z,20.90
2023-04-20T12:58:06.286Z,21.09
2023-04-20T13:00:36.170Z,20.71
2023-04-20T13:03:06.154Z,19.95
2023-04-20T13:05:36.094Z,18.62
2023-04-20T13:08:06.561Z,20.33
2023-04-20T13:10:39.410Z,19.57
2023-04-20T13:13:11.154Z,21.85
2023-04-20T13:15:41.371Z,22.42
2023-04-20T13:18:11.247Z,20.33
2023-04-20T13:20:41.353Z,19.19
2023-04-20T13:23:11.925Z,19.95
2023-04-20T13:25:41.705Z,18.62
2023-04-20T13:28:14.545Z,19.76
2023-04-20T13:30:45.046Z,20.14
2023-04-20T13:33:14.863Z,19.00
2023-04-20T13:35:44.670Z,20.90
2023-04-20T13:38:14.495Z,20.33
2023-04-20T13:40:44.547Z,19.00
2023-04-20T13:43:14.546Z,19.00
2023-04-20T13:45:44.521Z,18.05
2023-04-20T13:48:14.273Z,18.05
2023-04-20T13:50:44.128Z,18.24
2023-04-20T13:53:13.835Z,17.86
2023-04-20T13:55:43.597Z,19.19
2023-04-20T13:58:13.381Z,17.48
2023-04-20T14:00:43.245Z,19.00
2023-04-20T14:03:14.274Z,17.48
2023-04-20T14:05:45.845Z,16.34
2023-04-20T14:08:15.894Z,18.24
2023-04-20T14:10:46.072Z,17.10
2023-04-20T14:13:15.926Z,15.96
2023-04-20T14:15:46.014Z,17.10
2023-04-20T14:18:14.153Z,18.24
2023-04-20T14:20:43.012Z,16.91
2023-04-20T14:23:10.964Z,17.10
2023-04-20T14:25:39.438Z,16.15
2023-04-20T14:28:07.819Z,15.20
2023-04-20T14:30:36.173Z,16.15
2023-04-20T14:33:05.356Z,17.10
2023-04-20T14:35:33.063Z,17.10
2023-04-20T14:38:00.704Z,17.10
2023-04-20T14:40:27.996Z,16.34
2023-04-20T14:42:57.046Z,17.48
2023-04-20T14:45:24.699Z,17.86
2023-04-20T14:47:55.625Z,16.91
2023-04-20T14:50:32.106Z,16.72
2023-04-20T14:52:59.400Z,16.72
2023-04-20T14:55:26.872Z,16.72
2023-04-20T14:57:58.239Z,16.53
2023-04-20T15:00:28.340Z,16.34
2023-04-20T15:02:57.855Z,14.82
2023-04-20T15:05:28.621Z,15.58
2023-04-20T15:07:58.565Z,15.77
2023-04-20T15:10:28.648Z,15.39
2023-04-20T15:12:58.469Z,15.39
2023-04-20T15:15:37.652Z,14.82
2023-04-20T15:18:07.848Z,15.01
2023-04-20T15:20:37.699Z,14.82
2023-04-20T15:23:07.565Z,14.63
2023-04-20T15:25:38.345Z,14.25
2023-04-20T15:28:08.205Z,12.92
2023-04-20T15:30:38.143Z,13.68
2023-04-20T15:33:08.102Z,13.87
2023-04-20T15:35:38.231Z,14.44
2023-04-20T15:38:08.777Z,14.25
2023-04-20T15:40:41.653Z,14.25
2023-04-20T15:43:11.423Z,14.25
2023-04-20T15:45:42.866Z,14.82
2023-04-20T15:48:14.540Z,13.11
2023-04-20T15:50:44.646Z,13.11
2023-04-20T15:53:14.547Z,13.68
2023-04-20T15:55:44.520Z,13.68
2023-04-20T15:58:14.247Z,13.30
2023-04-20T16:00:44.096Z,12.16
2023-04-20T16:03:13.885Z,13.11
2023-04-20T16:05:42.071Z,12.92
2023-04-20T16:08:10.487Z,11.97
2023-04-20T16:10:38.877Z,12.16
2023-04-20T16:13:07.196Z,12.92
2023-04-20T16:15:35.978Z,13.49
2023-04-20T16:18:07.790Z,13.11
2023-04-20T16:20:35.488Z,11.97
2023-04-20T16:23:04.098Z,12.73
2023-04-20T16:25:34.252Z,13.11
2023-04-20T16:28:01.427Z,13.49
2023-04-20T16:30:33.405Z,12.92
2023-04-20T16:33:03.996Z,13.49
2023-04-20T16:35:33.160Z,12.54
2023-04-20T16:38:03.031Z,12.16
2023-04-20T16:40:32.802Z,11.97
2023-04-20T16:43:02.754Z,12.92
2023-04-20T16:45:33.544Z,13.30
2023-04-20T16:48:03.266Z,11.78
2023-04-20T16:50:33.140Z,11.78
2023-04-20T16:53:03.775Z,13.68
2023-04-20T16:55:33.270Z,14.06
2023-04-20T16:58:03.162Z,13.30
2023-04-20T17:00:34.892Z,13.30
2023-04-20T17:03:10.568Z,12.54
2023-04-20T17:05:41.854Z,12.92
2023-04-20T17:08:10.007Z,11.97
2023-04-20T17:10:40.057Z,13.11
2023-04-20T17:13:09.874Z,12.73
2023-04-20T17:15:42.664Z,11.78
2023-04-20T17:18:11.738Z,12.54
2023-04-20T17:20:42.309Z,13.11
2023-04-20T17:23:12.149Z,11.78
2023-04-20T17:25:43.655Z,12.92
2023-04-20T17:28:14.264Z,12.54
2023-04-20T17:30:43.540Z,12.73
2023-04-20T17:33:13.349Z,13.49
2023-04-20T17:35:43.243Z,12.16
2023-04-20T17:38:13.179Z,12.35
2023-04-20T17:40:43.244Z,12.54
2023-04-20T17:43:13.099Z,13.30
2023-04-20T17:45:42.974Z,12.73
2023-04-20T17:48:12.830Z,12.54
2023-04-20T17:50:42.569Z,12.73
2023-04-20T17:53:12.385Z,12.92
2023-04-20T17:55:42.274Z,12.92
2023-04-20T17:58:13.005Z,13.68
2023-04-20T18:00:43.492Z,13.30
2023-04-20T18:03:14.804Z,13.30
2023-04-20T18:05:44.049Z,13.68
2023-04-20T18:08:13.378Z,13.30
2023-04-20T18:10:41.649Z,12.92
2023-04-20T18:13:09.584Z,13.87
2023-04-20T18:15:37.938Z,13.68
2023-04-20T18:18:06.292Z,13.30
2023-04-20T18:20:34.793Z,13.11
2023-04-20T18:23:04.262Z,13.49
2023-04-20T18:25:31.543Z,13.49
2023-04-20T18:27:59.956Z,13.30
2023-04-20T18:30:28.546Z,14.44
2023-04-20T18:32:57.213Z,14.82
2023-04-20T18:35:25.564Z,13.87
2023-04-20T18:37:55.196Z,13.11
2023-04-20T18:40:22.158Z,13.49
2023-04-20T18:42:50.682Z,14.82
2023-04-20T18:45:21.230Z,14.44
2023-04-20T18:47:50.305Z,14.82
2023-04-20T18:50:18.869Z,12.92
2023-04-20T18:52:47.518Z,15.20
2023-04-20T18:55:15.730Z,14.25
2023-04-20T18:57:43.992Z,13.30
2023-04-20T19:00:14.272Z,15.39
2023-04-20T19:02:44.157Z,13.30
2023-04-20T19:05:14.647Z,13.87
2023-04-20T19:07:46.086Z,13.30
2023-04-20T19:10:16.147Z,13.68
2023-04-20T19:12:45.926Z,15.01
2023-04-20T19:15:15.816Z,14.82
2023-04-20T19:17:45.808Z,14.63
2023-04-20T19:20:15.953Z,16.34
2023-04-20T19:22:45.786Z,15.39
2023-04-20T19:25:15.694Z,15.39
2023-04-20T19:27:45.608Z,14.06
2023-04-20T19:30:15.580Z,13.87
2023-04-20T19:32:45.504Z,14.44
2023-04-20T19:35:15.634Z,13.87
2023-04-20T19:37:45.510Z,14.63
2023-04-20T19:40:16.227Z,13.68
2023-04-20T19:42:46.660Z,13.11
2023-04-20T19:45:17.681Z,14.63
2023-04-20T19:47:47.487Z,13.68
2023-04-20T19:50:17.565Z,13.68
2023-04-20T19:52:47.364Z,14.25
2023-04-20T19:55:17.220Z,14.82
2023-04-20T19:57:46.950Z,12.73
2023-04-20T20:00:17.637Z,13.30
2023-04-20T20:02:47.607Z,13.30
2023-04-20T20:05:17.573Z,12.35
2023-04-20T20:07:47.345Z,14.63
2023-04-20T20:10:17.143Z,12.54
2023-04-20T20:12:47.909Z,12.73
2023-04-20T20:15:17.923Z,12.35
2023-04-20T20:17:47.921Z,14.44
2023-04-20T20:20:17.803Z,14.63
2023-04-20T20:22:49.749Z,13.30
2023-04-20T20:25:19.982Z,14.25
2023-04-20T20:27:49.260Z,14.25
2023-04-20T20:30:19.166Z,12.73
2023-04-20T20:32:49.054Z,13.49
2023-04-20T20:35:18.998Z,15.01
2023-04-20T20:37:48.740Z,13.68
2023-04-20T20:40:19.299Z,13.87
2023-04-20T20:42:49.806Z,14.63
2023-04-20T20:45:19.619Z,14.44
2023-04-20T20:47:49.976Z,15.39
2023-04-20T20:50:20.665Z,13.87
2023-04-20T20:52:50.687Z,15.58
2023-04-20T20:55:20.498Z,15.01
2023-04-20T20:57:50.238Z,14.06
2023-04-20T21:00:20.220Z,14.06
2023-04-20T21:02:50.751Z,14.06
2023-04-20T21:05:22.899Z,12.54
2023-04-20T21:07:52.851Z,13.68
2023-04-20T21:10:22.945Z,13.87
2023-04-20T21:12:52.747Z,14.25
2023-04-20T21:15:22.714Z,14.63
2023-04-20T21:17:52.543Z,13.30
2023-04-20T21:20:22.413Z,13.87
2023-04-20T21:22:52.173Z,14.25
2023-04-20T21:25:22.035Z,13.49
2023-04-20T21:27:52.104Z,13.87
2023-04-20T21:30:21.946Z,12.73
2023-04-20T21:32:51.886Z,13.49
2023-04-20T21:35:22.006Z,13.11
2023-04-20T21:37:51.847Z,14.25
2023-04-20T21:40:22.717Z,15.77
2023-04-20T21:42:52.506Z,14.82
2023-04-20T21:45:22.263Z,13.87
2023-04-20T21:47:52.395Z,15.20
2023-04-20T21:50:26.970Z,14.06
2023-04-20T21:52:56.845Z,13.49
2023-04-20T21:55:26.807Z,13.68
2023-04-20T21:57:56.613Z,14.44
2023-04-20T22:00:26.387Z,14.82
2023-04-20T22:02:56.531Z,13.30
2023-04-20T22:05:27.810Z,14.63
2023-04-20T22:07:58.060Z,14.06
2023-04-20T22:10:28.512Z,14.06
2023-04-20T22:12:58.304Z,13.30
2023-04-20T22:15:27.607Z,15.01
2023-04-20T22:17:55.300Z,15.77
2023-04-20T22:20:23.581Z,14.06
2023-04-20T22:22:51.952Z,13.11
2023-04-20T22:25:20.470Z,14.44
2023-04-20T22:27:48.830Z,13.87
2023-04-20T22:30:17.402Z,13.11
2023-04-20T22:32:46.020Z,13.87
2023-04-20T22:35:14.315Z,13.87
2023-04-20T22:37:42.581Z,13.87
2023-04-20T22:40:12.372Z,12.73
2023-04-20T22:42:39.468Z,13.68
2023-04-20T22:45:10.817Z,14.25
2023-04-20T22:47:39.424Z,12.35
2023-04-20T22:50:09.644Z,14.25
2023-04-20T22:52:40.671Z,12.54
2023-04-20T22:55:11.135Z,13.11
2023-04-20T22:57:41.306Z,14.63
2023-04-20T23:00:13.756Z,12.35
2023-04-20T23:02:43.811Z,12.92
2023-04-20T23:05:13.840Z,12.16
2023-04-20T23:07:45.188Z,12.73
2023-04-20T23:10:16.236Z,12.54
2023-04-20T23:12:46.976Z,12.35
2023-04-20T23:15:16.916Z,13.87
2023-04-20T23:17:46.819Z,14.63
2023-04-20T23:20:17.128Z,12.16
2023-04-20T23:22:47.123Z,12.92
2023-04-20T23:25:16.998Z,11.78
2023-04-20T23:27:46.766Z,13.87
2023-04-20T23:30:16.771Z,12.92
2023-04-20T23:32:46.698Z,10.64
2023-04-20T23:35:16.817Z,12.35
2023-04-20T23:37:46.556Z,12.16
2023-04-20T23:40:16.930Z,13.49
2023-04-20T23:42:46.700Z,14.06
2023-04-20T23:45:16.415Z,12.92
2023-04-20T23:47:46.265Z,12.35
2023-04-20T23:50:16.247Z,13.68
2023-04-20T23:52:46.154Z,12.73
2023-04-20T23:55:15.906Z,12.54
2023-04-20T23:57:47.073Z,12.73
